TAF Text Data
IDs:
Format:
Raw Decoded Include METAR

Data at: 2003 UTC 08 Feb 2023

PAFA 081953Z 00000KT 2 1/2SM -SN BR SCT029 BKN037 OVC048 M16/M19 A2992 RMK AO2 SLP148 P0001 T11611194

TAF COR PAFA 081743Z 0818/0924 VRB03KT 1 1/2SM -SN BR FEW003 BKN014 OVC030
  TEMPO 0818/0820 3SM -SN BR SCT005 OVC030
  FM082000 VRB03KT 5SM -SN BKN025 OVC050
  FM090000 VRB03KT P6SM -SN OVC050